Time;durP1;ratioP1;P1;durP2;ratioP2;P2;SDS_P1;SDS_P2;PMS_P1;PMS_P2;Temp;Humidity;BMP_temperature;BMP_pressure;BME280_temperature;BME280_humidity;BME280_pressure;Samples;Min_cycle;Max_cycle;Signal;HPM_P1;HPM_P2
2023/01/28 00:00:00;;;;;;;18.13;16.33;;;5.40;99.90;;;;;;5007796;28;20041;-83
2023/01/28 00:02:26;;;;;;;17.23;15.60;;;5.40;99.90;;;;;;4995916;28;20030;-83
2023/01/28 00:04:53;;;;;;;17.03;15.33;;;5.40;99.90;;;;;;4993336;28;20113;-83
2023/01/28 00:07:20;;;;;;;17.97;16.07;;;5.40;99.90;;;;;;5010829;28;20383;-82
2023/01/28 00:09:46;;;;;;;17.03;15.23;;;5.50;99.90;;;;;;4999554;28;20049;-82
2023/01/28 00:12:12;;;;;;;16.40;14.90;;;5.50;99.90;;;;;;4994151;28;20050;-83
2023/01/28 00:14:38;;;;;;;18.47;16.57;;;5.50;99.90;;;;;;4997177;28;20385;-83
2023/01/28 00:17:05;;;;;;;17.53;15.83;;;5.50;99.90;;;;;;4990583;28;20510;-83
2023/01/28 00:19:31;;;;;;;17.53;15.83;;;5.50;99.90;;;;;;5008795;28;20033;-83
2023/01/28 00:21:57;;;;;;;18.60;16.53;;;5.50;99.90;;;;;;5010634;28;20398;-83
2023/01/28 00:24:23;;;;;;;18.53;16.73;;;5.40;99.90;;;;;;5006905;28;20030;-83
2023/01/28 00:26:50;;;;;;;19.23;15.43;;;5.40;99.90;;;;;;5010136;28;20038;-82
2023/01/28 00:29:16;;;;;;;18.83;16.47;;;5.40;99.90;;;;;;4992236;28;20534;-83
2023/01/28 00:31:42;;;;;;;17.83;16.13;;;5.40;99.90;;;;;;4997957;28;20045;-83
2023/01/28 00:34:08;;;;;;;17.30;15.60;;;5.40;99.90;;;;;;4995125;28;20368;-83
2023/01/28 00:36:38;;;;;;;17.90;16.20;;;5.40;99.90;;;;;;5011385;28;20029;-83
2023/01/28 00:39:04;;;;;;;18.00;16.10;;;5.30;99.90;;;;;;4999746;28;20379;-83
2023/01/28 00:41:30;;;;;;;19.10;17.17;;;5.30;99.90;;;;;;5000142;28;20378;-83
2023/01/28 00:43:56;;;;;;;21.00;17.57;;;5.30;99.90;;;;;;5011170;28;20422;-82
2023/01/28 00:46:25;;;;;;;19.50;17.37;;;5.30;99.90;;;;;;5000417;28;20035;-83
2023/01/28 00:48:51;;;;;;;18.67;16.37;;;5.30;99.90;;;;;;4979228;28;20038;-83
2023/01/28 00:51:18;;;;;;;20.33;18.27;;;5.30;99.90;;;;;;5006897;28;20031;-83
2023/01/28 00:53:44;;;;;;;19.00;17.07;;;5.30;99.90;;;;;;4993533;28;20025;-83
2023/01/28 00:56:12;;;;;;;19.17;17.37;;;5.30;99.90;;;;;;4987272;28;20033;-83
2023/01/28 00:58:39;;;;;;;18.97;16.90;;;5.30;99.90;;;;;;5006166;28;20045;-82
2023/01/28 01:01:13;;;;;;;21.30;18.33;;;5.30;99.90;;;;;;5026841;28;20041;-83
2023/01/28 01:03:40;;;;;;;19.77;17.00;;;5.30;99.90;;;;;;5016018;28;20060;-83
2023/01/28 01:06:06;;;;;;;21.73;19.13;;;5.30;99.90;;;;;;5018633;28;20045;-83
2023/01/28 01:08:38;;;;;;;21.10;18.90;;;5.30;99.90;;;;;;5003445;28;20021;-83
2023/01/28 01:11:05;;;;;;;20.70;17.73;;;5.30;99.90;;;;;;5030730;28;20033;-83
2023/01/28 01:13:33;;;;;;;21.03;18.57;;;5.30;99.90;;;;;;5013881;28;20042;-83
2023/01/28 01:16:10;;;;;;;19.40;17.40;;;5.30;99.90;;;;;;5014708;28;20030;-83
2023/01/28 01:18:40;;;;;;;23.60;20.50;;;5.30;99.90;;;;;;4998566;28;20363;-83
2023/01/28 01:21:11;;;;;;;21.07;18.87;;;5.30;99.90;;;;;;5021241;28;20030;-83
2023/01/28 01:23:37;;;;;;;21.83;19.48;;;5.30;99.90;;;;;;5014849;28;20048;-83
2023/01/28 01:26:04;;;;;;;20.37;18.10;;;5.30;99.90;;;;;;5014233;28;20045;-83
2023/01/28 01:28:30;;;;;;;21.73;18.60;;;5.30;99.90;;;;;;5014710;28;20026;-83
2023/01/28 01:31:00;;;;;;;21.73;19.10;;;5.30;99.90;;;;;;5014476;28;20049;-83
2023/01/28 01:33:28;;;;;;;22.80;20.20;;;5.20;99.90;;;;;;5031022;28;20038;-82
2023/01/28 01:35:54;;;;;;;22.73;20.33;;;5.20;99.90;;;;;;5014874;28;20029;-83
2023/01/28 01:38:20;;;;;;;26.23;21.50;;;5.30;99.90;;;;;;5009673;28;20045;-83
2023/01/28 01:40:47;;;;;;;21.87;19.40;;;5.30;99.90;;;;;;5029892;28;20030;-83
2023/01/28 01:43:20;;;;;;;23.07;20.53;;;5.20;99.90;;;;;;4997905;28;20053;-83
2023/01/28 01:45:49;;;;;;;22.27;19.43;;;5.30;99.90;;;;;;5014136;28;20044;-83
2023/01/28 01:48:18;;;;;;;22.00;19.60;;;5.20;99.90;;;;;;5013486;28;20060;-83
2023/01/28 01:50:52;;;;;;;22.87;20.37;;;5.30;99.90;;;;;;5008120;28;20041;-83
2023/01/28 01:53:19;;;;;;;22.20;19.90;;;5.20;99.90;;;;;;4994821;28;20471;-83
2023/01/28 01:55:47;;;;;;;25.13;21.27;;;5.30;99.90;;;;;;5007818;28;20487;-83
2023/01/28 01:58:18;;;;;;;24.87;19.77;;;5.30;99.90;;;;;;4994597;28;20429;-82
2023/01/28 02:00:44;;;;;;;22.37;19.13;;;5.30;99.90;;;;;;5008348;28;20041;-83
2023/01/28 02:03:11;;;;;;;24.10;20.37;;;5.30;99.90;;;;;;4995646;28;20030;-83
2023/01/28 02:05:37;;;;;;;23.67;21.00;;;5.30;99.90;;;;;;5002636;28;20490;-83
2023/01/28 02:08:21;;;;;;;21.10;18.83;;;5.30;99.90;;;;;;5010447;28;20108;-83
2023/01/28 02:10:52;;;;;;;19.50;17.40;;;5.40;99.90;;;;;;5010754;28;20042;-83
2023/01/28 02:13:19;;;;;;;25.52;21.25;;;5.30;99.90;;;;;;5003556;28;20497;-82
2023/01/28 02:15:45;;;;;;;22.63;19.30;;;5.20;99.90;;;;;;5004093;28;20045;-83
2023/01/28 02:18:11;;;;;;;23.63;20.80;;;5.20;99.90;;;;;;5013264;28;20033;-82
2023/01/28 02:21:02;;;;;;;21.57;19.30;;;5.10;99.90;;;;;;5013732;28;20037;-83
2023/01/28 02:23:47;;;;;;;24.85;21.40;;;5.20;99.90;;;;;;5027426;28;20041;-83
2023/01/28 02:26:25;;;;;;;21.77;19.30;;;5.10;99.90;;;;;;5004686;28;20026;-83
2023/01/28 02:28:56;;;;;;;23.63;18.77;;;5.20;99.90;;;;;;5013178;28;20033;-83
2023/01/28 02:31:23;;;;;;;24.33;21.27;;;5.20;99.90;;;;;;5010115;28;20065;-83
2023/01/28 02:34:01;;;;;;;27.60;22.67;;;5.20;99.90;;;;;;5015319;28;20022;-83
2023/01/28 02:36:50;;;;;;;28.27;22.40;;;5.20;99.90;;;;;;5017362;28;20036;-83
2023/01/28 02:39:19;;;;;;;24.90;21.70;;;5.20;99.90;;;;;;5003282;28;20022;-83
2023/01/28 02:41:48;;;;;;;26.47;22.43;;;5.20;99.90;;;;;;5033172;28;20025;-83
2023/01/28 02:44:14;;;;;;;26.30;21.70;;;5.20;99.90;;;;;;5008405;28;20026;-82
2023/01/28 02:49:45;;;;;;;27.20;23.27;;;5.20;99.90;;;;;;5024599;28;20044;-83
2023/01/28 02:52:17;;;;;;;22.60;19.67;;;5.20;99.90;;;;;;5032298;28;20045;-82
2023/01/28 02:55:08;;;;;;;24.30;18.87;;;5.20;99.90;;;;;;5019238;28;20032;-83
2023/01/28 02:57:42;;;;;;;29.35;24.00;;;5.10;99.90;;;;;;5001553;28;20040;-82
2023/01/28 03:00:18;;;;;;;28.97;23.30;;;5.00;99.90;;;;;;4992730;28;20049;-82
2023/01/28 03:02:58;;;;;;;30.27;24.23;;;5.00;99.90;;;;;;4994667;28;20034;-83
2023/01/28 03:06:02;;;;;;;25.53;22.23;;;5.10;99.90;;;;;;5024938;28;20041;-83
2023/01/28 03:36:52;;;;;;;19.77;17.67;;;4.60;99.90;;;;;;5024618;28;20040;-82
2023/01/28 03:39:22;;;;;;;20.97;18.77;;;4.60;99.90;;;;;;5021179;28;20375;-82
2023/01/28 03:42:13;;;;;;;21.88;19.52;;;4.60;99.90;;;;;;5010946;28;20041;-83
2023/01/28 03:44:52;;;;;;;20.45;18.35;;;4.60;99.90;;;;;;4995379;28;20029;-83
2023/01/28 03:47:25;;;;;;;20.77;17.97;;;4.60;99.90;;;;;;5028145;28;20790;-82
2023/01/28 03:49:53;;;;;;;20.07;18.07;;;4.50;99.90;;;;;;5015959;28;20052;-83
2023/01/28 03:52:24;;;;;;;20.03;17.80;;;4.60;99.90;;;;;;5033699;28;20036;-83
2023/01/28 03:54:51;;;;;;;19.03;17.00;;;4.50;99.90;;;;;;5012054;28;20502;-82
2023/01/28 03:57:22;;;;;;;17.30;15.63;;;4.50;99.90;;;;;;5010144;28;20390;-83
2023/01/28 03:59:48;;;;;;;21.27;18.15;;;4.50;99.90;;;;;;5012487;28;20117;-83
2023/01/28 04:02:15;;;;;;;17.47;15.77;;;4.50;99.90;;;;;;5014303;28;20037;-82
2023/01/28 04:04:41;;;;;;;20.53;18.43;;;4.50;99.90;;;;;;4999705;28;20045;-83
2023/01/28 04:07:09;;;;;;;19.53;17.57;;;4.50;99.90;;;;;;5002692;28;20042;-81
2023/01/28 04:09:36;;;;;;;13.93;12.73;;;4.50;99.90;;;;;;4997428;28;20368;-81
2023/01/28 04:12:02;;;;;;;17.20;15.43;;;4.40;99.90;;;;;;5027443;28;20033;-81
2023/01/28 04:14:28;;;;;;;21.43;19.20;;;4.40;99.90;;;;;;5009193;28;20046;-84
2023/01/28 04:16:55;;;;;;;20.00;18.00;;;4.40;99.90;;;;;;5003650;28;20416;-84
2023/01/28 04:19:21;;;;;;;20.97;18.30;;;4.40;99.90;;;;;;4997854;28;20037;-81
2023/01/28 04:21:48;;;;;;;22.00;19.30;;;4.40;99.90;;;;;;5032872;28;20038;-82
2023/01/28 04:24:14;;;;;;;22.00;18.83;;;4.50;99.90;;;;;;4996021;28;20022;-82
2023/01/28 04:26:40;;;;;;;21.53;18.87;;;4.50;99.90;;;;;;5007134;28;20064;-81
2023/01/28 04:29:07;;;;;;;21.33;19.23;;;4.50;99.90;;;;;;5010804;28;20048;-82
2023/01/28 04:31:33;;;;;;;21.87;18.03;;;4.50;99.90;;;;;;5010447;28;20045;-82
2023/01/28 04:33:59;;;;;;;23.17;19.83;;;4.50;99.90;;;;;;4996045;28;20499;-82
2023/01/28 04:36:25;;;;;;;18.37;16.40;;;4.40;99.90;;;;;;5030920;28;20037;-82
2023/01/28 04:38:52;;;;;;;22.13;19.70;;;4.50;99.90;;;;;;5006127;28;20029;-82
2023/01/28 04:41:18;;;;;;;21.30;19.13;;;4.40;99.90;;;;;;5019971;28;20386;-82
2023/01/28 04:43:44;;;;;;;21.43;19.23;;;4.50;99.90;;;;;;4995475;28;20479;-82
2023/01/28 04:46:10;;;;;;;20.87;18.87;;;4.50;99.90;;;;;;5014229;28;20025;-82
2023/01/28 04:48:37;;;;;;;20.63;18.43;;;4.50;99.90;;;;;;5032864;28;20356;-82
2023/01/28 04:51:03;;;;;;;19.63;17.67;;;4.50;99.90;;;;;;5031221;28;20030;-82
2023/01/28 04:53:29;;;;;;;19.77;17.77;;;4.50;99.90;;;;;;5015396;28;20391;-82
2023/01/28 04:55:56;;;;;;;21.57;19.33;;;4.50;99.90;;;;;;5029960;28;20032;-84
2023/01/28 04:58:22;;;;;;;19.07;17.00;;;4.50;99.90;;;;;;5005276;28;20040;-82
2023/01/28 05:00:55;;;;;;;21.03;18.80;;;4.50;99.90;;;;;;5025037;28;20096;-82
2023/01/28 05:03:22;;;;;;;21.60;19.23;;;4.40;99.90;;;;;;5013105;28;20045;-83
2023/01/28 05:05:48;;;;;;;23.30;19.60;;;4.40;99.90;;;;;;5024196;28;20045;-83
2023/01/28 05:08:14;;;;;;;29.13;22.73;;;4.40;99.90;;;;;;4995335;28;20022;-82
2023/01/28 05:10:40;;;;;;;21.80;19.47;;;4.30;99.90;;;;;;5012566;28;20502;-82
2023/01/28 05:13:06;;;;;;;22.30;20.17;;;4.30;99.90;;;;;;5009709;28;20029;-83
2023/01/28 05:15:32;;;;;;;21.67;19.30;;;4.40;99.90;;;;;;4998054;28;20034;-83
2023/01/28 05:17:58;;;;;;;22.07;19.77;;;4.40;99.90;;;;;;5015038;28;20040;-83
2023/01/28 05:20:25;;;;;;;20.73;18.50;;;4.40;99.90;;;;;;5014387;28;20037;-84
2023/01/28 05:22:51;;;;;;;20.00;17.93;;;4.40;99.90;;;;;;5014937;28;20040;-84
2023/01/28 05:25:17;;;;;;;24.03;21.07;;;4.30;99.90;;;;;;4997598;28;20029;-84
2023/01/28 05:27:47;;;;;;;24.10;20.50;;;4.30;99.90;;;;;;4995163;28;20502;-83
2023/01/28 05:30:14;;;;;;;20.63;18.50;;;4.30;99.90;;;;;;4994850;28;20041;-83
2023/01/28 05:32:40;;;;;;;22.73;20.40;;;4.30;99.90;;;;;;5014837;28;20041;-83
2023/01/28 05:35:06;;;;;;;24.13;20.17;;;4.40;99.90;;;;;;5030433;28;20056;-83
2023/01/28 05:37:32;;;;;;;21.53;19.33;;;4.40;99.90;;;;;;5030881;28;20029;-83
2023/01/28 05:39:59;;;;;;;22.53;20.13;;;4.30;99.90;;;;;;5014262;28;20022;-83
2023/01/28 05:42:25;;;;;;;18.90;17.10;;;4.40;99.90;;;;;;5014026;28;20049;-83
2023/01/28 05:44:51;;;;;;;20.57;18.23;;;4.30;99.90;;;;;;5031085;28;20033;-82
2023/01/28 05:47:17;;;;;;;24.83;20.70;;;4.30;99.90;;;;;;5031807;28;20034;-83
2023/01/28 05:49:43;;;;;;;23.10;16.33;;;4.30;99.90;;;;;;5013667;28;20041;-83
2023/01/28 05:52:09;;;;;;;23.23;20.77;;;4.30;99.90;;;;;;4996657;28;20392;-83
2023/01/28 05:54:35;;;;;;;24.37;21.63;;;4.30;99.90;;;;;;5009314;28;20026;-82
2023/01/28 05:57:01;;;;;;;25.03;19.63;;;4.30;99.90;;;;;;5010185;28;20368;-83
2023/01/28 05:59:28;;;;;;;23.40;20.87;;;4.40;99.90;;;;;;5012393;28;20030;-83
2023/01/28 06:01:54;;;;;;;20.00;18.07;;;4.40;99.90;;;;;;5020112;28;20022;-83
2023/01/28 06:04:20;;;;;;;23.50;20.93;;;4.40;99.90;;;;;;5013332;28;20477;-83
2023/01/28 06:06:46;;;;;;;26.50;22.27;;;4.40;99.90;;;;;;5008569;28;20033;-83
2023/01/28 06:09:12;;;;;;;24.27;21.67;;;4.40;99.90;;;;;;5017372;28;20029;-83
2023/01/28 06:11:38;;;;;;;26.57;23.23;;;4.40;99.90;;;;;;5018337;28;20076;-82
2023/01/28 06:14:04;;;;;;;25.10;21.67;;;4.50;99.90;;;;;;5028256;28;20026;-82
2023/01/28 06:16:30;;;;;;;25.70;22.20;;;4.40;99.90;;;;;;4998089;28;20036;-82
2023/01/28 06:18:56;;;;;;;26.97;23.43;;;4.40;99.90;;;;;;5034067;28;20022;-82
2023/01/28 06:21:22;;;;;;;22.60;19.33;;;4.40;99.90;;;;;;5017324;28;20045;-82
2023/01/28 06:23:48;;;;;;;27.37;22.43;;;4.40;99.90;;;;;;5035497;28;20022;-82
2023/01/28 06:26:14;;;;;;;26.07;22.87;;;4.50;99.90;;;;;;5035957;28;20052;-82
2023/01/28 06:28:41;;;;;;;20.47;18.40;;;4.50;99.90;;;;;;5034563;28;20021;-82
2023/01/28 06:31:07;;;;;;;25.03;22.33;;;4.50;99.90;;;;;;5034450;28;20064;-82
2023/01/28 06:33:33;;;;;;;25.80;20.97;;;4.40;99.90;;;;;;5014410;28;20086;-82
2023/01/28 06:36:02;;;;;;;23.93;21.43;;;4.40;99.90;;;;;;5026606;28;20048;-82
2023/01/28 06:38:28;;;;;;;25.27;22.60;;;4.40;99.90;;;;;;5010652;28;20029;-82
2023/01/28 06:40:54;;;;;;;25.20;22.47;;;4.40;99.90;;;;;;4982047;28;20049;-82
2023/01/28 06:43:26;;;;;;;26.37;23.47;;;4.40;99.90;;;;;;5014448;28;20041;-82
2023/01/28 06:45:58;;;;;;;22.83;20.50;;;4.40;99.90;;;;;;4977573;28;20034;-82
2023/01/28 06:48:25;;;;;;;22.00;19.73;;;4.40;99.90;;;;;;4995890;28;20034;-82
2023/01/28 06:50:51;;;;;;;26.93;22.87;;;4.40;99.90;;;;;;5002074;28;20057;-82
2023/01/28 06:53:17;;;;;;;24.90;22.20;;;4.40;99.90;;;;;;5006087;28;20387;-82
2023/01/28 06:55:43;;;;;;;25.43;21.43;;;4.40;99.90;;;;;;5013991;28;20034;-83
2023/01/28 06:58:09;;;;;;;16.50;15.10;;;4.50;99.90;;;;;;5014223;28;20033;-82
2023/01/28 07:00:36;;;;;;;26.70;23.20;;;4.40;99.90;;;;;;5014935;28;20034;-82
2023/01/28 07:03:03;;;;;;;23.63;20.80;;;4.40;99.90;;;;;;5013960;28;20494;-82
2023/01/28 07:05:29;;;;;;;24.37;21.50;;;4.40;99.90;;;;;;5013117;28;20616;-90
2023/01/28 07:07:55;;;;;;;21.20;18.90;;;4.30;99.90;;;;;;5014083;28;20038;-91
2023/01/28 07:10:21;;;;;;;20.17;18.20;;;4.50;99.90;;;;;;4995397;28;20058;-82
2023/01/28 07:12:47;;;;;;;29.97;21.87;;;4.50;99.90;;;;;;5013918;28;20030;-82
2023/01/28 07:15:14;;;;;;;24.87;22.00;;;4.50;99.90;;;;;;5012591;28;20041;-83
2023/01/28 07:17:40;;;;;;;25.40;22.67;;;4.50;99.90;;;;;;4997290;28;20042;-83
2023/01/28 07:20:08;;;;;;;28.70;22.00;;;4.50;99.90;;;;;;4999092;28;20463;-82
2023/01/28 07:22:35;;;;;;;23.10;20.60;;;4.40;99.90;;;;;;5015890;28;20037;-82
2023/01/28 07:25:01;;;;;;;24.10;21.57;;;4.40;99.90;;;;;;5016470;28;20025;-82
2023/01/28 07:27:27;;;;;;;27.47;21.20;;;4.30;99.90;;;;;;5034469;28;20029;-82
2023/01/28 07:29:53;;;;;;;24.30;20.87;;;4.30;99.90;;;;;;5017192;28;20033;-82
2023/01/28 07:32:19;;;;;;;23.17;20.67;;;4.30;99.90;;;;;;5034080;28;20040;-83
2023/01/28 07:34:45;;;;;;;26.33;21.47;;;4.30;99.90;;;;;;5034295;28;20026;-82
2023/01/28 07:37:11;;;;;;;25.47;20.60;;;4.30;99.90;;;;;;5028172;28;20025;-82
2023/01/28 07:39:37;;;;;;;26.30;21.10;;;4.20;99.90;;;;;;5012303;28;20041;-82
2023/01/28 07:42:03;;;;;;;29.13;21.90;;;4.20;99.90;;;;;;5030441;28;20467;-84
2023/01/28 07:44:30;;;;;;;26.77;20.97;;;4.20;99.90;;;;;;4996923;28;20395;-84
2023/01/28 07:46:56;;;;;;;28.63;22.30;;;4.20;99.90;;;;;;5007142;28;20049;-85
2023/01/28 07:49:22;;;;;;;28.73;21.33;;;4.20;99.90;;;;;;5034208;28;20040;-86
2023/01/28 07:51:49;;;;;;;26.50;21.07;;;4.20;99.90;;;;;;5016826;28;20052;-85
2023/01/28 07:54:16;;;;;;;28.33;20.57;;;4.20;99.90;;;;;;5016889;28;20041;-87
2023/01/28 07:56:42;;;;;;;22.80;16.93;;;4.10;99.90;;;;;;4999452;28;20474;-86
2023/01/28 07:59:08;;;;;;;28.07;18.70;;;4.00;99.90;;;;;;5016311;28;20028;-82
2023/01/28 08:01:34;;;;;;;18.47;16.60;;;3.90;99.90;;;;;;5016008;28;20398;-84
2023/01/28 08:04:00;;;;;;;28.20;21.50;;;3.90;99.90;;;;;;5015780;28;20061;-83
2023/01/28 08:06:30;;;;;;;15.47;14.13;;;3.90;99.90;;;;;;5016681;28;20386;-86
2023/01/28 08:08:56;;;;;;;27.13;20.07;;;3.90;99.90;;;;;;4999507;28;20048;-87
2023/01/28 08:11:22;;;;;;;30.07;22.33;;;3.90;99.90;;;;;;4991001;28;20038;-87
2023/01/28 08:13:48;;;;;;;21.40;18.30;;;3.90;99.90;;;;;;5011729;28;20521;-83
2023/01/28 08:16:14;;;;;;;27.90;20.50;;;3.80;99.90;;;;;;5012876;28;20041;-88
2023/01/28 08:18:41;;;;;;;28.63;21.83;;;3.80;99.90;;;;;;4996179;28;20049;-89
2023/01/28 08:21:07;;;;;;;26.63;21.23;;;3.80;99.90;;;;;;5014124;28;20045;-89
2023/01/28 08:23:35;;;;;;;32.47;23.30;;;3.90;99.90;;;;;;5003136;28;20352;-88
2023/01/28 08:26:01;;;;;;;28.87;23.10;;;3.80;99.90;;;;;;4997559;28;20030;-88
2023/01/28 08:28:28;;;;;;;18.23;16.30;;;3.80;99.90;;;;;;5006739;28;20482;-87
2023/01/28 08:30:54;;;;;;;26.67;22.07;;;3.80;99.90;;;;;;4995052;28;20049;-85
2023/01/28 08:33:20;;;;;;;14.87;13.33;;;3.80;99.90;;;;;;4996508;28;20037;-87
2023/01/28 08:35:46;;;;;;;26.43;20.47;;;3.80;99.90;;;;;;4996623;28;20336;-84
2023/01/28 08:38:14;;;;;;;26.20;19.43;;;3.80;99.90;;;;;;5023917;28;20030;-87
2023/01/28 08:40:40;;;;;;;21.50;16.53;;;3.80;99.90;;;;;;4996482;28;20390;-86
2023/01/28 08:43:06;;;;;;;24.43;18.17;;;3.80;99.90;;;;;;4990825;28;20045;-88
2023/01/28 08:45:32;;;;;;;26.70;20.90;;;3.80;99.90;;;;;;4997203;28;20048;-88
2023/01/28 08:47:59;;;;;;;24.13;19.50;;;3.80;99.90;;;;;;5015897;28;20052;-89
2023/01/28 08:50:26;;;;;;;30.17;21.63;;;3.80;99.90;;;;;;5016300;28;20364;-88
2023/01/28 08:52:56;;;;;;;27.30;21.00;;;3.80;99.90;;;;;;5015973;28;20044;-87
2023/01/28 08:55:23;;;;;;;41.50;29.47;;;3.90;99.90;;;;;;5012699;28;20029;-86
2023/01/28 08:57:49;;;;;;;33.33;24.83;;;3.90;99.90;;;;;;5001224;28;20029;-87
2023/01/28 09:00:15;;;;;;;42.93;32.20;;;3.90;99.90;;;;;;5014856;28;20026;-84
2023/01/28 09:02:41;;;;;;;46.03;33.97;;;4.00;99.90;;;;;;5030998;28;20048;-82
2023/01/28 09:05:08;;;;;;;42.47;32.87;;;4.00;99.90;;;;;;5032331;28;20040;-84
2023/01/28 09:07:34;;;;;;;35.67;27.47;;;4.00;99.90;;;;;;5031935;28;20029;-87
2023/01/28 09:10:00;;;;;;;38.30;29.73;;;4.00;99.90;;;;;;5015179;28;20025;-82
2023/01/28 09:12:26;;;;;;;35.33;27.53;;;4.00;99.90;;;;;;5009688;28;20403;-81
2023/01/28 09:14:52;;;;;;;34.47;26.83;;;4.00;99.90;;;;;;5008800;28;20021;-85
2023/01/28 09:17:19;;;;;;;39.60;29.73;;;4.00;99.90;;;;;;5008561;28;20041;-86
2023/01/28 09:19:45;;;;;;;33.53;25.97;;;4.00;99.90;;;;;;4995848;28;20463;-85
2023/01/28 09:22:12;;;;;;;28.53;23.10;;;4.00;99.90;;;;;;5034682;28;20048;-88
2023/01/28 09:24:38;;;;;;;20.23;18.13;;;4.10;99.90;;;;;;4981627;28;20034;-83
2023/01/28 09:27:04;;;;;;;26.07;22.50;;;4.30;99.90;;;;;;5010286;28;20493;-85
2023/01/28 09:29:30;;;;;;;41.87;28.10;;;4.40;99.90;;;;;;5032017;28;20030;-84
2023/01/28 09:31:56;;;;;;;26.07;21.57;;;4.60;99.90;;;;;;5012431;28;20049;-89
2023/01/28 09:34:22;;;;;;;31.67;26.93;;;4.70;99.90;;;;;;5003915;28;20044;-88
2023/01/28 09:36:48;;;;;;;19.17;16.17;;;4.90;99.90;;;;;;5009537;28;20041;-87
2023/01/28 09:39:14;;;;;;;23.83;20.17;;;5.00;99.90;;;;;;5022818;28;20030;-89
2023/01/28 09:42:02;;;;;;;30.37;20.93;;;5.00;99.90;;;;;;5029590;28;20025;-86
2023/01/28 09:44:33;;;;;;;28.13;22.23;;;5.00;99.90;;;;;;5033918;28;20053;-82
2023/01/28 09:47:02;;;;;;;26.85;21.35;;;5.20;99.90;;;;;;5017200;28;20505;-84
2023/01/28 09:49:34;;;;;;;26.00;22.07;;;5.40;99.90;;;;;;5021456;28;20033;-85
2023/01/28 09:52:00;;;;;;;18.20;16.33;;;5.40;99.90;;;;;;5019985;28;20497;-84
2023/01/28 09:54:44;;;;;;;30.30;21.77;;;5.30;99.90;;;;;;5010293;28;20026;-84
2023/01/28 09:57:22;;;;;;;26.57;21.70;;;5.40;99.90;;;;;;5018195;28;20025;-81
2023/01/28 09:59:49;;;;;;;20.10;16.70;;;5.40;99.90;;;;;;5020243;28;20097;-80
2023/01/28 10:02:44;;;;;;;21.80;18.30;;;5.40;99.90;;;;;;5020602;28;20033;-83
2023/01/28 10:05:15;;;;;;;19.73;17.67;;;5.40;99.90;;;;;;4957581;29;20051;-83
2023/01/28 10:08:00;;;;;;;24.20;20.00;;;5.40;99.90;;;;;;4942097;29;20050;-83
2023/01/28 10:10:51;;;;;;;18.37;16.53;;;5.40;99.90;;;;;;4937993;29;20027;-81
2023/01/28 10:13:36;;;;;;;18.73;16.55;;;5.50;99.90;;;;;;4953241;28;20051;-82
2023/01/28 10:16:15;;;;;;;31.10;23.53;;;5.60;99.90;;;;;;4929296;29;20040;-81
2023/01/28 10:18:50;;;;;;;27.80;23.47;;;5.70;99.90;;;;;;4923825;29;20055;-83
2023/01/28 10:21:30;;;;;;;20.10;18.07;;;5.70;99.90;;;;;;4952091;28;20531;-83
2023/01/28 10:24:03;;;;;;;22.40;18.80;;;5.80;99.90;;;;;;4943524;29;20031;-83
2023/01/28 10:26:36;;;;;;;16.53;15.03;;;5.90;99.90;;;;;;4932838;28;20046;-83
2023/01/28 10:29:11;;;;;;;26.10;21.33;;;5.90;99.90;;;;;;4933036;29;20055;-83
2023/01/28 10:31:41;;;;;;;22.80;19.77;;;6.00;99.90;;;;;;4936310;28;20085;-83
2023/01/28 10:34:09;;;;;;;24.43;21.40;;;6.00;99.90;;;;;;4925761;28;20132;-84
2023/01/28 10:36:35;;;;;;;27.00;21.63;;;6.00;99.90;;;;;;4949155;29;20381;-85
2023/01/28 10:39:01;;;;;;;22.97;20.57;;;6.00;99.90;;;;;;4946124;28;20035;-84
2023/01/28 10:41:27;;;;;;;16.97;15.13;;;6.10;99.90;;;;;;4998195;28;20502;-90
2023/01/28 10:43:53;;;;;;;25.87;18.30;;;6.30;99.90;;;;;;5019883;28;20029;-83
2023/01/28 10:46:46;;;;;;;24.40;19.27;;;6.30;99.90;;;;;;4999414;28;20053;-85
2023/01/28 10:49:21;;;;;;;22.33;18.30;;;6.40;99.90;;;;;;4998507;28;20026;-85
2023/01/28 10:51:47;;;;;;;33.50;30.70;;;6.30;99.90;;;;;;5028271;28;20038;-85
2023/01/28 10:54:21;;;;;;;15.63;14.17;;;6.10;99.90;;;;;;5018010;28;20041;-83
2023/01/28 10:57:12;;;;;;;18.00;15.97;;;6.20;99.90;;;;;;5015492;28;20044;-89
2023/01/28 10:59:40;;;;;;;21.88;17.55;;;6.20;99.90;;;;;;5025136;28;20041;-85
2023/01/28 11:02:25;;;;;;;18.77;16.93;;;6.30;99.90;;;;;;5006464;28;20509;-84
2023/01/28 11:05:29;;;;;;;19.33;16.87;;;6.30;99.90;;;;;;5033037;28;20399;-83
2023/01/28 11:08:15;;;;;;;21.63;16.87;;;6.20;99.90;;;;;;5017833;28;20493;-83
2023/01/28 11:10:41;;;;;;;16.13;14.63;;;6.20;99.90;;;;;;5000412;28;20052;-83
2023/01/28 11:13:24;;;;;;;18.03;15.83;;;6.10;99.90;;;;;;5012009;28;20407;-83
2023/01/28 11:15:59;;;;;;;20.80;16.93;;;6.00;99.90;;;;;;5001486;28;20041;-82
2023/01/28 11:18:30;;;;;;;16.57;14.80;;;6.00;99.90;;;;;;5012032;28;20025;-85
2023/01/28 11:20:58;;;;;;;18.00;15.93;;;6.10;99.90;;;;;;5017028;28;20030;-84
2023/01/28 11:23:26;;;;;;;30.37;20.63;;;6.00;99.90;;;;;;5017109;28;20041;-83
2023/01/28 11:26:05;;;;;;;27.07;21.20;;;6.00;99.90;;;;;;5016929;28;20458;-84
2023/01/28 11:28:31;;;;;;;25.77;19.47;;;6.00;99.90;;;;;;5015974;28;20030;-83
2023/01/28 11:30:58;;;;;;;23.93;19.10;;;5.90;99.90;;;;;;5003606;28;20046;-84
2023/01/28 11:33:44;;;;;;;22.57;18.87;;;5.90;99.90;;;;;;5002912;28;20458;-83
2023/01/28 11:36:16;;;;;;;24.93;20.20;;;6.00;99.90;;;;;;5012695;28;20033;-87
2023/01/28 11:38:53;;;;;;;17.33;15.60;;;6.00;99.90;;;;;;5010930;28;20379;-83
2023/01/28 11:41:31;;;;;;;21.87;17.93;;;6.10;99.90;;;;;;5014814;28;20048;-85
2023/01/28 11:43:58;;;;;;;18.90;16.93;;;6.10;99.90;;;;;;5015878;28;20033;-84
2023/01/28 11:46:50;;;;;;;22.87;18.87;;;6.10;99.90;;;;;;5009957;28;20394;-86
2023/01/28 11:49:38;;;;;;;20.77;16.37;;;6.10;99.90;;;;;;5004291;28;20047;-86
2023/01/28 11:52:19;;;;;;;26.37;20.47;;;6.10;99.90;;;;;;5016307;28;20060;-86
2023/01/28 11:55:05;;;;;;;;;;;6.20;99.90;;;;;;5031090;28;20041;-78
2023/01/28 11:58:01;;;;;;;19.20;17.20;;;6.20;99.90;;;;;;5022287;28;19920;-82
2023/01/28 12:00:46;;;;;;;15.70;14.10;;;6.10;99.90;;;;;;5013432;28;20029;-83
2023/01/28 12:03:43;;;;;;;16.60;14.90;;;6.20;99.90;;;;;;5015304;28;20432;-86
2023/01/28 12:06:15;;;;;;;20.00;17.87;;;6.00;99.90;;;;;;5031941;28;20048;-84
2023/01/28 12:08:55;;;;;;;15.03;13.70;;;5.90;99.90;;;;;;5031164;28;20072;-82
2023/01/28 12:14:36;;;;;;;16.27;14.73;;;5.80;99.90;;;;;;5022054;28;20028;-83
2023/01/28 12:17:18;;;;;;;21.07;17.63;;;5.80;99.90;;;;;;5014044;28;20041;-83
2023/01/28 12:19:56;;;;;;;23.80;18.53;;;5.90;99.90;;;;;;5010228;28;20049;-84
2023/01/28 12:22:25;;;;;;;15.30;13.80;;;5.90;99.90;;;;;;4995350;28;20045;-83
2023/01/28 12:25:06;;;;;;;27.17;20.07;;;5.90;99.90;;;;;;5013138;28;20033;-84
2023/01/28 12:27:59;;;;;;;20.35;17.55;;;6.00;99.90;;;;;;5000506;28;20021;-84
2023/01/28 12:30:51;;;;;;;24.17;18.17;;;6.00;99.90;;;;;;5014907;28;20036;-83
2023/01/28 12:33:44;;;;;;;25.07;21.20;;;5.80;99.90;;;;;;4965618;28;20120;-84
2023/01/28 12:36:32;;;;;;;24.57;19.50;;;5.80;99.90;;;;;;4955269;28;20046;-83
2023/01/28 12:39:11;;;;;;;22.93;18.70;;;5.70;99.90;;;;;;4938658;28;20038;-83
2023/01/28 12:41:40;;;;;;;19.93;15.97;;;5.60;99.90;;;;;;4954895;28;20181;-83
2023/01/28 12:44:17;;;;;;;22.40;19.07;;;5.60;99.90;;;;;;4940436;28;20040;-83
2023/01/28 12:46:54;;;;;;;13.50;12.33;;;5.60;99.90;;;;;;4923573;28;20038;-83
2023/01/28 12:49:29;;;;;;;23.97;18.87;;;5.70;99.90;;;;;;4939509;28;20034;-82
2023/01/28 12:52:06;;;;;;;16.60;14.93;;;5.60;99.90;;;;;;4969773;28;20465;-83
2023/01/28 12:54:43;;;;;;;26.90;20.63;;;5.70;99.90;;;;;;4956383;28;20050;-83
2023/01/28 12:57:13;;;;;;;27.60;20.27;;;5.70;99.90;;;;;;4955013;28;20050;-83
2023/01/28 12:59:44;;;;;;;18.47;16.13;;;5.80;99.90;;;;;;4923136;28;20057;-82
2023/01/28 13:02:10;;;;;;;;;;;5.80;99.90;;;;;;4938553;28;20383;-82
2023/01/28 13:04:45;;;;;;;21.53;17.97;;;5.70;99.90;;;;;;4970960;28;19972;-83
2023/01/28 13:07:25;;;;;;;19.20;17.10;;;5.70;99.90;;;;;;4968599;28;20031;-83
2023/01/28 13:09:53;;;;;;;34.67;20.88;;;5.60;99.90;;;;;;4992943;28;20041;-82
2023/01/28 13:12:20;;;;;;;24.63;20.17;;;5.60;99.90;;;;;;5014529;28;20423;-83
2023/01/28 13:14:46;;;;;;;15.03;13.57;;;5.60;99.90;;;;;;5014593;28;20030;-83
2023/01/28 13:17:24;;;;;;;19.97;17.17;;;5.50;99.90;;;;;;5011796;28;20048;-83
2023/01/28 13:19:50;;;;;;;22.57;19.07;;;5.50;99.90;;;;;;4998532;28;20030;-83
2023/01/28 13:22:34;;;;;;;22.37;18.67;;;5.60;99.90;;;;;;5030550;28;20136;-82
2023/01/28 13:25:20;;;;;;;19.87;17.87;;;5.60;99.90;;;;;;5030978;28;20030;-83
2023/01/28 13:28:03;;;;;;;14.00;13.00;;;5.70;99.90;;;;;;5019343;28;20017;-83